Time;durP1;ratioP1;P1;durP2;ratioP2;P2;SDS_P1;SDS_P2;PMS_P1;PMS_P2;Temp;Humidity;BMP_temperature;BMP_pressure;BME280_temperature;BME280_humidity;BME280_pressure;Samples;Min_cycle;Max_cycle;Signal;HPM_P1;HPM_P2
2022/08/07 00:00:37;;;;;;;;;;;;;;;13.46;75.48;101504.16;5015693;28;1416;-81
2022/08/07 00:03:02;;;;;;;;;;;;;;;13.58;75.63;101504.72;5014262;28;1894;-81
2022/08/07 00:05:27;;;;;;;;;;;;;;;13.51;75.01;101501.41;5015766;28;1479;-81
2022/08/07 00:07:53;;;;;;;;;;;;;;;13.46;76.02;101504.97;5010679;28;1839;-81
2022/08/07 00:10:18;;;;;;;;;;;;;;;13.31;76.96;101507.72;5013852;28;1389;-81
2022/08/07 00:12:44;;;;;;;;;;;;;;;13.05;76.97;101506.84;5011484;28;1694;-81
2022/08/07 00:15:09;;;;;;;;;;;;;;;13.18;76.85;101502.78;5012679;28;1681;-81
2022/08/07 00:17:34;;;;;;;;;;;;;;;13.21;77.07;101502.22;5007520;28;1546;-81
2022/08/07 00:20:00;;;;;;;;;;;;;;;13.27;76.74;101500.31;5008353;28;1697;-81
2022/08/07 00:22:25;;;;;;;;;;;;;;;13.34;75.98;101496.19;5010886;28;1977;-81
2022/08/07 00:24:50;;;;;;;;;;;;;;;13.29;75.98;101503.59;5015275;28;1181;-81
2022/08/07 00:27:16;;;;;;;;;;;;;;;13.15;76.56;101500.56;5015342;28;1839;-81
2022/08/07 00:29:41;;;;;;;;;;;;;;;12.88;77.38;101498.03;5014289;28;1381;-81
2022/08/07 00:32:07;;;;;;;;;;;;;;;12.96;77.06;101494.75;5014648;28;1403;-82
2022/08/07 00:34:32;;;;;;;;;;;;;;;12.88;76.87;101495.28;5013903;28;1474;-81
2022/08/07 00:36:57;;;;;;;;;;;;;;;12.63;78.07;101489.72;5006035;28;1773;-81
2022/08/07 00:39:22;;;;;;;;;;;;;;;12.93;77.84;101492.53;5014574;28;1536;-81
2022/08/07 00:41:48;;;;;;;;;;;;;;;13.04;76.68;101496.13;5014344;28;1415;-81
2022/08/07 00:44:14;;;;;;;;;;;;;;;12.94;76.39;101496.91;5015920;28;1906;-81
2022/08/07 00:46:39;;;;;;;;;;;;;;;12.84;77.17;101496.94;5016725;28;797;-81
2022/08/07 00:49:04;;;;;;;;;;;;;;;12.89;77.26;101495.00;5015421;28;1776;-81
2022/08/07 00:51:29;;;;;;;;;;;;;;;12.88;77.06;101495.28;5016553;28;1117;-82
2022/08/07 00:53:54;;;;;;;;;;;;;;;12.94;77.60;101496.09;5013886;28;1807;-81
2022/08/07 00:56:20;;;;;;;;;;;;;;;12.96;76.38;101485.66;5003923;28;1056;-81
2022/08/07 00:58:45;;;;;;;;;;;;;;;12.98;76.94;101489.81;5025417;28;1561;-81
2022/08/07 01:01:11;;;;;;;;;;;;;;;12.95;76.90;101484.00;5012301;28;1634;-81
2022/08/07 01:03:36;;;;;;;;;;;;;;;12.72;77.69;101485.34;5015548;28;1893;-81
2022/08/07 01:06:02;;;;;;;;;;;;;;;12.57;77.61;101475.16;5015899;28;1043;-81
2022/08/07 01:08:27;;;;;;;;;;;;;;;12.50;78.11;101478.13;5015159;28;1451;-81
2022/08/07 01:10:52;;;;;;;;;;;;;;;12.60;78.38;101476.50;5015543;28;1353;-81
2022/08/07 01:13:18;;;;;;;;;;;;;;;12.58;77.31;101475.97;5013846;28;1412;-81
2022/08/07 01:15:44;;;;;;;;;;;;;;;12.52;78.62;101473.19;5015534;28;1720;-81
2022/08/07 01:18:10;;;;;;;;;;;;;;;12.58;77.88;101471.31;5016067;28;1067;-81
2022/08/07 01:20:40;;;;;;;;;;;;;;;12.51;78.17;101471.53;5006913;28;1491;-81
2022/08/07 01:23:05;;;;;;;;;;;;;;;12.41;78.91;101477.03;5005383;28;1890;-81
2022/08/07 01:25:31;;;;;;;;;;;;;;;12.45;78.42;101474.53;5001301;28;1495;-81
2022/08/07 01:27:57;;;;;;;;;;;;;;;12.26;79.01;101479.69;5014667;28;1253;-81
2022/08/07 01:30:24;;;;;;;;;;;;;;;12.28;78.70;101473.94;5007893;28;1682;-81
2022/08/07 01:32:49;;;;;;;;;;;;;;;12.18;78.49;101477.44;5018822;28;1483;-81
2022/08/07 01:35:14;;;;;;;;;;;;;;;12.07;78.91;101475.78;5014121;28;1435;-80
2022/08/07 01:37:39;;;;;;;;;;;;;;;12.04;78.87;101473.53;4999336;28;1020;-82
2022/08/07 01:40:05;;;;;;;;;;;;;;;12.16;78.88;101473.34;5016015;28;1575;-81
2022/08/07 01:42:30;;;;;;;;;;;;;;;12.04;79.35;101473.53;5017025;28;1973;-81
2022/08/07 01:44:56;;;;;;;;;;;;;;;12.06;79.63;101474.13;5016876;28;1258;-81
2022/08/07 01:47:21;;;;;;;;;;;;;;;12.03;79.43;101466.41;5017259;28;1571;-82
2022/08/07 01:49:46;;;;;;;;;;;;;;;12.10;79.25;101458.75;5011991;28;1436;-81
2022/08/07 01:52:12;;;;;;;;;;;;;;;12.05;79.37;101456.81;5016784;28;1573;-81
2022/08/07 01:54:39;;;;;;;;;;;;;;;12.06;78.98;101463.97;5016965;28;1768;-81
2022/08/07 01:57:05;;;;;;;;;;;;;;;12.23;78.80;101462.94;5019187;28;1157;-81
2022/08/07 01:59:52;;;;;;;;;;;;;;;12.13;78.46;101459.06;5016260;28;1535;-81
2022/08/07 02:02:29;;;;;;;;;;;;;;;11.89;79.22;101465.22;5017989;28;1910;-81
2022/08/07 02:05:01;;;;;;;;;;;;;;;11.79;80.30;101460.50;5016725;28;1779;-81
2022/08/07 02:07:29;;;;;;;;;;;;;;;11.95;79.70;101459.50;5000243;28;908;-81
2022/08/07 02:09:55;;;;;;;;;;;;;;;11.78;79.87;101455.28;5011395;28;1621;-81
2022/08/07 02:12:23;;;;;;;;;;;;;;;11.88;79.78;101453.44;5016356;28;1799;-82
2022/08/07 02:14:50;;;;;;;;;;;;;;;11.88;79.10;101456.19;5013818;28;1769;-81
2022/08/07 02:17:16;;;;;;;;;;;;;;;11.99;79.05;101451.56;5013271;28;1534;-81
2022/08/07 02:19:41;;;;;;;;;;;;;;;12.00;78.63;101456.78;5006921;28;1266;-81
2022/08/07 02:22:09;;;;;;;;;;;;;;;11.91;79.15;101452.09;5017373;28;1968;-81
2022/08/07 02:24:34;;;;;;;;;;;;;;;11.67;79.99;101457.09;5016444;28;1423;-81
2022/08/07 02:27:00;;;;;;;;;;;;;;;11.84;79.87;101455.03;5017729;28;1804;-81
2022/08/07 02:29:26;;;;;;;;;;;;;;;11.91;79.13;101450.13;5016710;28;1808;-81
2022/08/07 02:31:51;;;;;;;;;;;;;;;11.76;79.12;101452.81;5017010;28;1479;-81
2022/08/07 02:34:17;;;;;;;;;;;;;;;11.74;78.78;101453.06;5017701;28;1253;-81
2022/08/07 02:36:43;;;;;;;;;;;;;;;11.75;79.73;101454.72;5017949;28;1745;-81
2022/08/07 02:39:09;;;;;;;;;;;;;;;11.74;79.51;101453.06;5015220;28;1486;-81
2022/08/07 02:41:34;;;;;;;;;;;;;;;11.77;79.20;101454.47;5016230;28;1540;-81
2022/08/07 02:44:00;;;;;;;;;;;;;;;11.69;79.53;101454.94;5016061;28;1894;-82
2022/08/07 02:46:26;;;;;;;;;;;;;;;11.71;79.15;101455.50;5017698;28;1784;-82
2022/08/07 02:48:52;;;;;;;;;;;;;;;11.61;79.05;101449.94;5017539;28;1011;-81
2022/08/07 02:51:18;;;;;;;;;;;;;;;11.59;79.35;101450.19;5015906;28;1815;-81
2022/08/07 02:53:45;;;;;;;;;;;;;;;11.46;79.73;101455.31;5015149;28;1740;-81
2022/08/07 02:56:13;;;;;;;;;;;;;;;11.35;80.29;101444.28;5016250;28;1403;-82
2022/08/07 02:58:39;;;;;;;;;;;;;;;11.21;80.67;101455.94;5017374;28;1139;-81
2022/08/07 03:01:04;;;;;;;;;;;;;;;11.38;80.63;101457.47;5012738;28;1389;-81
2022/08/07 03:03:31;;;;;;;;;;;;;;;11.38;79.53;101449.25;4998355;28;1957;-81
2022/08/07 03:05:57;;;;;;;;;;;;;;;11.24;80.24;101448.00;5017649;28;1740;-81
2022/08/07 03:08:23;;;;;;;;;;;;;;;11.30;80.17;101446.16;5012897;28;1381;-82
2022/08/07 03:10:48;;;;;;;;;;;;;;;11.30;79.72;101448.91;5016852;28;1488;-82
2022/08/07 03:13:14;;;;;;;;;;;;;;;11.37;79.27;101454.97;5015334;28;1439;-81
2022/08/07 03:15:39;;;;;;;;;;;;;;;11.36;79.75;101456.06;5016925;28;1376;-82
2022/08/07 03:18:04;;;;;;;;;;;;;;;11.36;79.68;101458.81;5016075;28;1168;-82
2022/08/07 03:20:30;;;;;;;;;;;;;;;11.39;79.59;101469.25;5017078;28;1463;-82
2022/08/07 03:22:56;;;;;;;;;;;;;;;11.16;80.04;101431.22;5017196;28;1863;-82
2022/08/07 03:25:22;;;;;;;;;;;;;;;11.25;80.33;101457.91;5016941;28;1847;-81
2022/08/07 03:27:48;;;;;;;;;;;;;;;11.33;80.09;101459.31;5017004;28;1427;-82
2022/08/07 03:30:13;;;;;;;;;;;;;;;11.30;79.61;101457.94;5008603;28;1479;-81
2022/08/07 03:32:41;;;;;;;;;;;;;;;11.02;80.49;101460.16;5015531;28;1762;-82
2022/08/07 03:35:12;;;;;;;;;;;;;;;11.04;80.67;101456.06;5006648;28;1748;-81
2022/08/07 03:37:38;;;;;;;;;;;;;;;11.19;80.22;101452.63;5013545;28;1760;-81
2022/08/07 03:40:04;;;;;;;;;;;;;;;11.13;80.36;101456.44;5013351;28;1733;-82
2022/08/07 03:42:32;;;;;;;;;;;;;;;11.13;80.27;101456.44;5014224;28;1965;-82
2022/08/07 03:44:58;;;;;;;;;;;;;;;11.00;81.35;101455.75;5016273;28;1292;-81
2022/08/07 03:47:23;;;;;;;;;;;;;;;10.95;82.09;101454.91;5014593;28;1514;-81
2022/08/07 03:49:48;;;;;;;;;;;;;;;10.85;82.38;101455.63;5014887;28;1203;-81
2022/08/07 03:52:14;;;;;;;;;;;;;;;10.77;82.53;101453.34;5016505;28;1295;-80
2022/08/07 03:54:39;;;;;;;;;;;;;;;10.90;81.51;101454.81;5015760;28;1380;-81
2022/08/07 03:57:05;;;;;;;;;;;;;;;10.61;82.90;101457.03;5014822;28;1725;-81
2022/08/07 03:59:31;;;;;;;;;;;;;;;10.67;82.77;101458.72;5015810;28;1474;-80
2022/08/07 04:01:56;;;;;;;;;;;;;;;10.74;82.05;101462.06;5016246;28;1329;-80
2022/08/07 04:04:21;;;;;;;;;;;;;;;10.67;82.83;101458.72;5008527;28;1943;-82
2022/08/07 04:06:46;;;;;;;;;;;;;;;10.73;82.02;101465.06;5015093;28;1697;-81
2022/08/07 04:09:12;;;;;;;;;;;;;;;10.77;82.64;101461.56;5012032;28;1549;-81
2022/08/07 04:11:38;;;;;;;;;;;;;;;10.81;81.41;101461.84;5004976;28;1832;-81
2022/08/07 04:14:04;;;;;;;;;;;;;;;10.96;81.17;101459.28;5013779;28;1507;-81
2022/08/07 04:16:29;;;;;;;;;;;;;;;10.98;80.72;101468.88;5011824;28;1641;-81
2022/08/07 04:18:55;;;;;;;;;;;;;;;10.93;81.21;101459.81;5013865;28;1431;-81
2022/08/07 04:21:20;;;;;;;;;;;;;;;10.66;81.63;101462.53;5006335;28;1697;-81
2022/08/07 04:23:45;;;;;;;;;;;;;;;10.48;82.54;101465.63;5011724;28;1957;-81
2022/08/07 04:26:11;;;;;;;;;;;;;;;10.63;82.47;101471.28;5015243;28;1172;-81
2022/08/07 04:28:36;;;;;;;;;;;;;;;10.79;82.18;101458.56;5013734;28;1484;-82
2022/08/07 04:31:02;;;;;;;;;;;;;;;10.80;81.52;101463.75;5011879;28;1401;-82
2022/08/07 04:33:27;;;;;;;;;;;;;;;10.63;82.97;101471.28;5015699;28;1611;-80
2022/08/07 04:35:53;;;;;;;;;;;;;;;10.50;83.57;101468.94;5011364;28;1761;-81
2022/08/07 04:38:18;;;;;;;;;;;;;;;10.61;83.44;101468.78;4997177;28;1705;-81
2022/08/07 04:40:44;;;;;;;;;;;;;;;10.65;83.81;101465.53;5001431;28;1106;-80
2022/08/07 04:43:10;;;;;;;;;;;;;;;10.87;83.06;101472.63;5012349;28;1965;-81
2022/08/07 04:46:01;;;;;;;;;;;;;;;10.71;82.75;101467.25;5007243;28;1684;-80
2022/08/07 04:48:45;;;;;;;;;;;;;;;10.86;82.77;101473.72;5007721;28;1657;-81
2022/08/07 04:51:18;;;;;;;;;;;;;;;10.91;82.62;101468.28;4996669;28;1554;-81
2022/08/07 04:54:02;;;;;;;;;;;;;;;10.78;83.55;101476.09;5003398;28;1582;-82
2022/08/07 04:56:46;;;;;;;;;;;;;;;10.84;83.43;101475.88;4994908;28;1542;-81
2022/08/07 04:59:17;;;;;;;;;;;;;;;10.77;83.51;101480.72;5005176;28;1395;-81
2022/08/07 05:01:51;;;;;;;;;;;;;;;10.79;83.70;101472.28;4996345;28;1427;-81
2022/08/07 05:04:25;;;;;;;;;;;;;;;10.87;83.58;101472.63;5013318;28;1965;-81
2022/08/07 05:07:11;;;;;;;;;;;;;;;10.69;84.23;101474.91;5018274;28;1288;-81
2022/08/07 05:09:36;;;;;;;;;;;;;;;10.62;85.02;101477.84;5018399;28;1752;-81
2022/08/07 05:12:03;;;;;;;;;;;;;;;10.71;85.15;101478.22;5019073;28;1502;-81
2022/08/07 05:14:37;;;;;;;;;;;;;;;10.73;85.27;101476.00;5015309;28;1977;-81
2022/08/07 05:17:03;;;;;;;;;;;;;;;10.68;85.39;101474.06;5017210;28;1408;-81
2022/08/07 05:19:33;;;;;;;;;;;;;;;10.77;85.81;101477.16;5019385;28;1121;-81
2022/08/07 05:21:59;;;;;;;;;;;;;;;10.82;85.35;101475.31;5007621;28;1672;-80
2022/08/07 05:24:25;;;;;;;;;;;;;;;10.89;85.43;101475.09;5017621;28;1605;-81
2022/08/07 05:26:52;;;;;;;;;;;;;;;11.09;85.27;101480.78;5018872;28;1122;-81
2022/08/07 05:29:18;;;;;;;;;;;;;;;11.12;85.32;101484.91;5017856;28;1436;-81
2022/08/07 05:31:45;;;;;;;;;;;;;;;11.09;86.39;101480.78;5017749;28;1706;-81
2022/08/07 05:34:11;;;;;;;;;;;;;;;11.11;86.60;101484.09;5018294;28;1898;-82
2022/08/07 05:36:39;;;;;;;;;;;;;;;11.30;86.63;101487.28;5021052;28;1191;-82
2022/08/07 05:39:05;;;;;;;;;;;;;;;11.46;86.21;101491.78;5019546;28;1618;-81
2022/08/07 05:41:30;;;;;;;;;;;;;;;11.39;86.75;101485.72;5020029;28;1763;-82
2022/08/07 05:43:57;;;;;;;;;;;;;;;11.43;87.33;101489.56;5020809;28;1773;-82
2022/08/07 05:46:22;;;;;;;;;;;;;;;11.49;87.34;101493.16;5018811;28;1847;-82
2022/08/07 05:48:49;;;;;;;;;;;;;;;11.60;87.21;101492.97;5020305;28;1509;-82
2022/08/07 05:51:14;;;;;;;;;;;;;;;11.66;86.41;101489.19;5020251;28;1740;-82
2022/08/07 05:53:39;;;;;;;;;;;;;;;11.68;87.48;101489.75;5031769;28;1958;-82
2022/08/07 05:56:06;;;;;;;;;;;;;;;11.71;87.78;101496.63;5009790;28;1447;-82
2022/08/07 05:58:32;;;;;;;;;;;;;;;11.78;87.83;101494.50;5020894;28;1740;-82
2022/08/07 06:00:58;;;;;;;;;;;;;;;11.81;87.85;101495.91;5020525;28;1474;-81
2022/08/07 06:03:25;;;;;;;;;;;;;;;11.84;88.14;101498.09;5019625;28;1402;-81
2022/08/07 06:05:51;;;;;;;;;;;;;;;11.87;87.45;101489.34;5018929;28;1578;-81
2022/08/07 06:08:16;;;;;;;;;;;;;;;11.94;87.94;101485.28;5020269;28;1701;-81
2022/08/07 06:10:42;;;;;;;;;;;;;;;12.00;87.18;101486.97;5020714;28;1047;-82
2022/08/07 06:13:07;;;;;;;;;;;;;;;12.04;85.86;101484.53;5012197;28;1897;-82
2022/08/07 06:15:34;;;;;;;;;;;;;;;12.12;85.85;101497.75;5009800;28;1576;-82
2022/08/07 06:17:59;;;;;;;;;;;;;;;12.12;86.61;101489.50;5019182;28;1314;-81
2022/08/07 06:20:25;;;;;;;;;;;;;;;12.09;87.04;101495.50;5018822;28;1768;-82
2022/08/07 06:22:51;;;;;;;;;;;;;;;12.11;87.47;101496.91;4999416;28;1298;-83
2022/08/07 06:25:17;;;;;;;;;;;;;;;12.15;87.25;101496.38;5001785;28;1443;-82
2022/08/07 06:27:42;;;;;;;;;;;;;;;12.22;87.19;101495.03;5001205;28;1072;-82
2022/08/07 06:30:08;;;;;;;;;;;;;;;12.27;87.16;101497.81;5012506;28;1067;-83
2022/08/07 06:32:33;;;;;;;;;;;;;;;12.30;86.99;101494.53;5019259;28;1969;-83
2022/08/07 06:34:59;;;;;;;;;;;;;;;12.39;87.22;101495.69;5012717;28;1812;-83
2022/08/07 06:37:24;;;;;;;;;;;;;;;12.42;87.36;101489.63;5019558;28;1223;-83
2022/08/07 06:39:49;;;;;;;;;;;;;;;12.45;87.58;101494.59;5018182;28;1601;-83
2022/08/07 06:42:18;;;;;;;;;;;;;;;12.50;87.89;101497.34;5018334;28;1288;-83
2022/08/07 06:44:44;;;;;;;;;;;;;;;12.54;86.94;101488.59;5019320;28;1380;-83
2022/08/07 06:47:10;;;;;;;;;;;;;;;12.52;87.24;101492.41;5018119;28;1268;-82
2022/08/07 06:49:35;;;;;;;;;;;;;;;12.57;86.77;101491.63;5017113;28;1502;-83
2022/08/07 06:52:00;;;;;;;;;;;;;;;12.66;87.57;101490.00;5018632;28;1541;-84
2022/08/07 06:54:27;;;;;;;;;;;;;;;12.75;87.21;101482.91;5018933;28;1901;-83
2022/08/07 06:56:55;;;;;;;;;;;;;;;12.82;87.77;101482.63;5015980;28;1732;-83
2022/08/07 06:59:41;;;;;;;;;;;;;;;12.84;87.01;101475.75;5018950;28;1594;-83
2022/08/07 07:02:07;;;;;;;;;;;;;;;12.87;86.57;101472.47;5010542;28;1527;-83
2022/08/07 07:04:33;;;;;;;;;;;;;;;12.90;87.08;101468.34;5015923;28;1348;-83
2022/08/07 07:06:58;;;;;;;;;;;;;;;12.89;87.83;101469.44;5013611;28;1393;-85
2022/08/07 07:09:27;;;;;;;;;;;;;;;12.92;87.85;101468.91;5019963;28;1203;-84
2022/08/07 07:11:58;;;;;;;;;;;;;;;12.96;88.06;101466.44;5018339;28;1621;-83
2022/08/07 07:14:26;;;;;;;;;;;;;;;13.02;87.37;101468.06;5017761;28;1902;-83
2022/08/07 07:16:53;;;;;;;;;;;;;;;13.08;87.59;101470.59;5018319;28;1188;-83
2022/08/07 07:19:21;;;;;;;;;;;;;;;13.08;86.99;101465.09;5018968;28;1149;-84
2022/08/07 07:21:48;;;;;;;;;;;;;;;13.09;86.87;101471.41;5019079;28;1253;-83
2022/08/07 07:24:15;;;;;;;;;;;;;;;13.13;86.59;101470.59;5018391;28;1434;-83
2022/08/07 07:26:43;;;;;;;;;;;;;;;13.17;86.42;101471.72;5018749;28;1397;-83
2022/08/07 07:29:10;;;;;;;;;;;;;;;13.20;86.34;101465.66;5018321;28;1728;-83
2022/08/07 07:31:39;;;;;;;;;;;;;;;13.25;86.13;101459.34;5000383;28;1331;-83
2022/08/07 07:34:07;;;;;;;;;;;;;;;13.34;86.98;101470.63;5020661;28;1983;-83
2022/08/07 07:36:33;;;;;;;;;;;;;;;13.37;86.43;101465.38;5026459;28;1437;-83
2022/08/07 07:38:59;;;;;;;;;;;;;;;13.41;86.18;101462.91;5023918;28;1328;-84
2022/08/07 07:41:25;;;;;;;;;;;;;;;13.43;86.07;101457.97;5019555;28;1439;-83
2022/08/07 07:43:51;;;;;;;;;;;;;;;13.48;87.46;101452.44;5016357;28;1687;-83
2022/08/07 07:46:17;;;;;;;;;;;;;;;13.55;87.97;101444.75;5020314;28;1411;-83
2022/08/07 07:48:44;;;;;;;;;;;;;;;13.58;86.37;101449.69;5019416;28;1156;-83
2022/08/07 07:51:11;;;;;;;;;;;;;;;13.59;86.89;101445.84;5019135;28;1805;-83
2022/08/07 07:53:38;;;;;;;;;;;;;;;13.63;87.05;101444.19;5014669;28;1906;-84
2022/08/07 07:56:04;;;;;;;;;;;;;;;13.69;87.54;101439.50;5017383;28;1324;-83
2022/08/07 07:58:31;;;;;;;;;;;;;;;13.72;86.84;101433.44;5016747;28;1499;-84
2022/08/07 08:00:57;;;;;;;;;;;;;;;13.76;86.45;101437.28;5013969;28;1843;-83
2022/08/07 08:03:22;;;;;;;;;;;;;;;13.80;86.75;101433.69;5028094;28;1414;-84
2022/08/07 08:05:48;;;;;;;;;;;;;;;13.89;87.68;101429.25;5019525;28;1410;-83
2022/08/07 08:08:14;;;;;;;;;;;;;;;13.92;87.01;101431.47;5010920;28;1663;-83
2022/08/07 08:10:39;;;;;;;;;;;;;;;14.00;85.84;101424.53;5011384;28;1470;-83
2022/08/07 08:13:06;;;;;;;;;;;;;;;14.07;86.95;101430.56;5017937;28;1902;-83
2022/08/07 08:15:34;;;;;;;;;;;;;;;14.12;86.30;101429.75;5017577;28;1319;-84
2022/08/07 08:17:59;;;;;;;;;;;;;;;14.16;85.46;101431.63;5019699;28;1067;-83
2022/08/07 08:20:26;;;;;;;;;;;;;;;14.23;84.94;101418.38;5018980;28;996;-83
2022/08/07 08:28:24;;;;;;;;;;;;;;;14.40;82.72;101426.31;5014811;28;2376;-84
2022/08/07 08:30:52;;;;;;;;;;;;;;;14.48;82.80;101419.38;5000990;28;976;-83
2022/08/07 08:33:19;;;;;;;;;;;;;;;14.53;82.35;101419.38;5014203;28;1883;-83
2022/08/07 08:35:47;;;;;;;;;;;;;;;14.59;79.17;101421.81;4999574;28;984;-83
2022/08/07 08:38:13;;;;;;;;;;;;;;;14.59;78.55;101413.53;5002404;28;1047;-83
2022/08/07 08:40:40;;;;;;;;;;;;;;;14.68;80.15;101408.25;5018942;28;1248;-83
2022/08/07 08:43:18;;;;;;;;;;;;;;;14.69;80.77;101413.50;5021068;28;1368;-83
2022/08/07 08:45:47;;;;;;;;;;;;;;;14.76;80.09;101408.47;5004431;28;838;-83
2022/08/07 08:48:26;;;;;;;;;;;;;;;14.81;78.93;101404.84;5004272;28;814;-83
2022/08/07 08:51:03;;;;;;;;;;;;;;;14.90;79.40;101403.13;5002292;28;1394;-83
2022/08/07 08:53:31;;;;;;;;;;;;;;;14.98;80.15;101405.25;5003610;28;1960;-83
2022/08/07 08:56:00;;;;;;;;;;;;;;;15.05;78.70;101394.75;5004147;28;1004;-84
2022/08/07 08:58:31;;;;;;;;;;;;;;;15.05;76.42;101392.00;5004157;28;1771;-84
2022/08/07 09:01:03;;;;;;;;;;;;;;;15.18;77.02;101400.69;5002969;28;1208;-83
2022/08/07 09:03:37;;;;;;;;;;;;;;;15.25;76.02;101395.66;5014396;28;1383;-84
2022/08/07 09:06:05;;;;;;;;;;;;;;;15.34;76.11;101397.50;5023290;28;1349;-84
2022/08/07 09:08:56;;;;;;;;;;;;;;;15.35;75.48;101390.88;5027014;28;1168;-85
2022/08/07 09:11:26;;;;;;;;;;;;;;;15.38;74.42;101386.72;5031959;28;829;-83
2022/08/07 09:13:57;;;;;;;;;;;;;;;15.44;74.13;101385.56;5028308;28;1898;-84
2022/08/07 09:16:35;;;;;;;;;;;;;;;15.58;74.32;101385.72;5022711;28;1422;-84
2022/08/07 09:19:03;;;;;;;;;;;;;;;15.58;73.21;101388.47;5022789;28;905;-85
2022/08/07 09:21:34;;;;;;;;;;;;;;;15.66;71.78;101376.78;5022626;28;1270;-85
2022/08/07 09:24:18;;;;;;;;;;;;;;;15.73;70.06;101377.28;5022259;28;1220;-85
2022/08/07 09:26:52;;;;;;;;;;;;;;;15.65;70.78;101375.97;5023892;28;1036;-85
2022/08/07 09:29:20;;;;;;;;;;;;;;;15.66;71.75;101376.78;5023187;28;1114;-84
2022/08/07 09:31:58;;;;;;;;;;;;;;;15.61;72.11;101369.41;5021560;28;1765;-85
2022/08/07 09:34:49;;;;;;;;;;;;;;;15.52;71.80;101366.44;5021819;28;1898;-83
2022/08/07 09:37:33;;;;;;;;;;;;;;;15.67;71.80;101364.63;5029455;28;1576;-84
2022/08/07 09:40:07;;;;;;;;;;;;;;;15.69;72.39;101366.00;5007160;28;1392;-84
2022/08/07 09:42:32;;;;;;;;;;;;;;;15.75;71.49;101358.47;5002858;28;1234;-84
2022/08/07 09:45:19;;;;;;;;;;;;;;;15.92;68.90;101353.28;5009042;28;1428;-84
2022/08/07 09:47:47;;;;;;;;;;;;;;;16.00;68.98;101349.88;5019998;28;1268;-83
2022/08/07 09:50:18;;;;;;;;;;;;;;;16.25;67.60;101345.94;5017030;28;1479;-84
2022/08/07 09:52:50;;;;;;;;;;;;;;;16.39;65.96;101343.28;5018608;28;1883;-83
2022/08/07 09:55:19;;;;;;;;;;;;;;;16.53;65.92;101342.22;5020959;28;1265;-84
2022/08/07 09:58:01;;;;;;;;;;;;;;;16.67;65.82;101334.03;5006717;28;1712;-84
2022/08/07 10:00:31;;;;;;;;;;;;;;;16.70;65.32;101338.94;5020112;28;1788;-84
2022/08/07 10:02:59;;;;;;;;;;;;;;;16.81;66.28;101334.91;5018273;28;1519;-84
2022/08/07 10:05:33;;;;;;;;;;;;;;;16.87;68.17;101330.91;5013756;28;1288;-84
2022/08/07 10:08:17;;;;;;;;;;;;;;;16.88;65.70;101327.03;5014347;28;1808;-84
2022/08/07 10:10:46;;;;;;;;;;;;;;;16.98;64.19;101326.84;5019906;28;1433;-84
2022/08/07 10:13:31;;;;;;;;;;;;;;;17.13;66.41;101327.69;5020726;28;1969;-84
2022/08/07 10:16:26;;;;;;;;;;;;;;;17.32;63.37;101320.16;5018259;28;1467;-84
2022/08/07 10:18:59;;;;;;;;;;;;;;;17.37;62.55;101317.28;5014664;28;1144;-84
2022/08/07 10:21:48;;;;;;;;;;;;;;;17.51;63.36;101323.66;5021673;28;1527;-84
2022/08/07 10:24:13;;;;;;;;;;;;;;;17.57;62.45;101316.06;5019222;28;1513;-84
2022/08/07 10:26:44;;;;;;;;;;;;;;;17.62;62.11;101321.53;5020312;28;1392;-83
2022/08/07 10:29:28;;;;;;;;;;;;;;;17.66;60.93;101322.56;5011632;28;1260;-83
2022/08/07 10:32:13;;;;;;;;;;;;;;;17.77;61.51;101326.78;5014220;28;1663;-84
2022/08/07 10:34:56;;;;;;;;;;;;;;;17.75;58.76;101316.00;5017548;28;1882;-84
2022/08/07 10:37:34;;;;;;;;;;;;;;;17.77;58.04;101299.09;5020891;28;1069;-84
2022/08/07 10:40:07;;;;;;;;;;;;;;;17.70;60.27;101304.19;5020394;28;1268;-84
2022/08/07 10:42:38;;;;;;;;;;;;;;;17.78;61.10;101304.28;5018604;28;1417;-84
2022/08/07 10:45:07;;;;;;;;;;;;;;;17.72;60.10;101294.47;5005178;28;1321;-84
2022/08/07 10:47:35;;;;;;;;;;;;;;;17.68;57.06;101295.41;5025921;28;1443;-84
2022/08/07 10:50:20;;;;;;;;;;;;;;;17.64;61.76;101297.13;5018278;28;1292;-84
2022/08/07 10:52:59;;;;;;;;;;;;;;;17.81;62.44;101300.09;5018305;28;1867;-84
2022/08/07 10:55:37;;;;;;;;;;;;;;;17.92;59.58;101292.38;5015656;28;1390;-84
2022/08/07 10:58:14;;;;;;;;;;;;;;;17.91;61.48;101293.53;5021463;28;1325;-84
2022/08/07 11:00:54;;;;;;;;;;;;;;;17.95;56.74;101287.03;5013180;28;1413;-84
2022/08/07 11:03:25;;;;;;;;;;;;;;;17.97;56.18;101283.97;5010000;28;1793;-84
2022/08/07 11:06:09;;;;;;;;;;;;;;;17.92;59.35;101275.78;5011907;28;1145;-84
2022/08/07 11:08:57;;;;;;;;;;;;;;;18.10;57.38;101286.72;5019821;28;1138;-84
2022/08/07 11:11:26;;;;;;;;;;;;;;;18.04;60.44;101276.84;5015041;28;1378;-84
2022/08/07 11:13:54;;;;;;;;;;;;;;;18.12;58.29;101283.59;5001431;28;1883;-83
2022/08/07 11:16:24;;;;;;;;;;;;;;;18.20;57.88;101273.75;5015135;28;1194;-84
2022/08/07 11:18:53;;;;;;;;;;;;;;;18.44;54.58;101277.06;5013237;28;1472;-83
2022/08/07 11:21:37;;;;;;;;;;;;;;;18.40;53.21;101271.31;5017295;28;1200;-84
2022/08/07 11:24:21;;;;;;;;;;;;;;;18.32;54.47;101272.06;5022709;28;1393;-84
2022/08/07 11:26:49;;;;;;;;;;;;;;;18.28;60.17;101271.06;5016879;28;1000;-84
2022/08/07 11:29:17;;;;;;;;;;;;;;;18.30;58.03;101266.00;5015403;28;1398;-84
2022/08/07 11:31:52;;;;;;;;;;;;;;;18.38;58.42;101268.03;5014620;28;1881;-84
2022/08/07 11:34:20;;;;;;;;;;;;;;;18.42;57.37;101259.91;5008082;28;1883;-84
2022/08/07 11:36:55;;;;;;;;;;;;;;;18.35;57.32;101257.59;5017498;28;1098;-84
2022/08/07 11:39:20;;;;;;;;;;;;;;;18.43;57.73;101239.38;5001416;28;1467;-84
2022/08/07 11:41:49;;;;;;;;;;;;;;;18.50;57.77;101246.13;5003217;28;1881;-84
2022/08/07 11:44:38;;;;;;;;;;;;;;;18.54;56.33;101236.00;5016610;28;1683;-83
2022/08/07 11:47:12;;;;;;;;;;;;;;;18.51;55.96;101236.66;5011031;28;1784;-84
2022/08/07 11:49:56;;;;;;;;;;;;;;;18.68;55.18;101232.41;5016310;28;1247;-84
2022/08/07 11:52:40;;;;;;;;;;;;;;;18.75;55.17;101227.22;5016306;28;1566;-84
2022/08/07 11:55:16;;;;;;;;;;;;;;;18.88;53.26;101231.88;5017448;28;992;-84
2022/08/07 11:57:53;;;;;;;;;;;;;;;18.77;54.27;101225.75;5011447;28;1681;-84
2022/08/07 12:00:22;;;;;;;;;;;;;;;18.73;54.63;101223.94;5002075;28;1637;-83
2022/08/07 12:02:51;;;;;;;;;;;;;;;18.81;53.36;101214.84;5016553;28;1420;-84
2022/08/07 12:05:22;;;;;;;;;;;;;;;18.92;52.22;101212.63;5016511;28;1348;-84
2022/08/07 12:07:59;;;;;;;;;;;;;;;18.76;58.90;101220.53;5015422;28;1696;-84
2022/08/07 12:10:29;;;;;;;;;;;;;;;18.76;56.52;101215.81;5016770;28;1309;-84
2022/08/07 12:13:11;;;;;;;;;;;;;;;18.58;56.52;101219.59;5015479;28;1971;-83
2022/08/07 12:15:40;;;;;;;;;;;;;;;18.62;54.09;101215.06;5014470;28;1653;-84
2022/08/07 12:18:20;;;;;;;;;;;;;;;18.72;55.19;101214.78;5012619;28;1475;-84
2022/08/07 12:21:04;;;;;;;;;;;;;;;18.77;55.08;101205.53;5008743;28;1366;-84
2022/08/07 12:23:48;;;;;;;;;;;;;;;18.84;57.92;101211.44;5016730;28;1435;-84
2022/08/07 12:26:18;;;;;;;;;;;;;;;18.89;56.25;101206.56;5011627;28;1371;-84
2022/08/07 12:29:06;;;;;;;;;;;;;;;19.01;54.84;101205.97;5015000;28;1515;-84
2022/08/07 12:31:39;;;;;;;;;;;;;;;19.01;54.40;101200.41;5016497;28;1605;-84
2022/08/07 12:34:05;;;;;;;;;;;;;;;19.02;56.87;101207.59;5014721;28;1906;-84
2022/08/07 12:36:32;;;;;;;;;;;;;;;19.09;57.66;101202.41;5015907;28;1379;-84
2022/08/07 12:38:57;;;;;;;;;;;;;;;19.13;52.99;101200.66;5010805;28;1657;-83
2022/08/07 12:41:24;;;;;;;;;;;;;;;19.24;56.30;101198.38;4996860;28;1634;-83
2022/08/07 12:43:51;;;;;;;;;;;;;;;19.24;56.34;101190.88;5014475;28;1526;-84
2022/08/07 12:46:30;;;;;;;;;;;;;;;19.29;57.70;101189.91;5014495;28;1271;-84
2022/08/07 12:49:08;;;;;;;;;;;;;;;19.35;57.35;101188.63;5003003;28;1290;-84
2022/08/07 12:51:38;;;;;;;;;;;;;;;19.46;53.82;101189.16;5012949;28;1189;-84
2022/08/07 12:54:07;;;;;;;;;;;;;;;19.72;53.30;101192.00;5009970;28;1898;-82
2022/08/07 12:56:34;;;;;;;;;;;;;;;19.88;49.90;101190.38;5002083;28;1714;-85
2022/08/07 12:59:01;;;;;;;;;;;;;;;19.70;53.02;101183.97;5010849;28;1500;-84
2022/08/07 13:01:45;;;;;;;;;;;;;;;19.69;51.55;101178.75;5012037;28;1686;-84
2022/08/07 13:04:19;;;;;;;;;;;;;;;19.62;53.67;101179.22;5015020;28;1603;-84